Time;durP1;ratioP1;P1;durP2;ratioP2;P2;SDS_P1;SDS_P2;PMS_P1;PMS_P2;Temp;Humidity;BMP_temperature;BMP_pressure;BME280_temperature;BME280_humidity;BME280_pressure;Samples;Min_cycle;Max_cycle;Signal;HPM_P1;HPM_P2
2023/06/03 00:00:37;;;;;;;1.27;0.30;;;;;;;;;;5116254;27;20418;-79
2023/06/03 00:03:03;;;;;;;0.93;0.30;;;;;;;;;;5134837;27;20406;-79
2023/06/03 00:05:29;;;;;;;1.73;0.50;;;;;;;;;;5134556;27;20801;-78
2023/06/03 00:07:55;;;;;;;0.97;0.30;;;;;;;;;;5122954;27;20423;-80
2023/06/03 00:10:20;;;;;;;3.17;0.60;;;;;;;;;;5103000;28;20415;-79
2023/06/03 00:12:46;;;;;;;1.73;0.23;;;;;;;;;;5105135;28;20864;-78
2023/06/03 00:15:15;;;;;;;0.70;0.50;;;;;;;;;;5107904;28;20410;-80
2023/06/03 00:17:41;;;;;;;1.13;0.33;;;;;;;;;;5114202;28;20729;-78
2023/06/03 00:20:11;;;;;;;4.23;0.50;;;;;;;;;;5114079;28;20494;-76
2023/06/03 00:22:37;;;;;;;0.70;0.20;;;;;;;;;;5114017;28;20409;-79
2023/06/03 00:25:06;;;;;;;1.70;0.40;;;;;;;;;;5113987;28;20446;-79
2023/06/03 00:27:32;;;;;;;0.70;0.40;;;;;;;;;;5114030;28;20498;-79
2023/06/03 00:29:58;;;;;;;1.40;0.27;;;;;;;;;;5113634;28;20986;-79
2023/06/03 00:32:24;;;;;;;2.67;0.47;;;;;;;;;;5113862;28;21027;-78
2023/06/03 00:34:50;;;;;;;1.43;0.40;;;;;;;;;;5113666;28;20790;-79
2023/06/03 00:37:16;;;;;;;2.47;0.87;;;;;;;;;;5113832;28;20412;-78
2023/06/03 00:39:42;;;;;;;1.37;0.53;;;;;;;;;;5113772;28;20397;-79
2023/06/03 00:42:08;;;;;;;1.70;0.30;;;;;;;;;;5113837;28;20417;-78
2023/06/03 00:44:34;;;;;;;0.60;0.30;;;;;;;;;;5113392;28;20401;-79
2023/06/03 00:47:00;;;;;;;1.77;0.20;;;;;;;;;;5113749;28;20413;-79
2023/06/03 00:49:26;;;;;;;3.27;0.20;;;;;;;;;;5113655;28;20546;-78
2023/06/03 00:51:52;;;;;;;1.07;0.40;;;;;;;;;;5113506;28;20502;-77
2023/06/03 00:54:17;;;;;;;0.77;0.30;;;;;;;;;;5113587;28;20493;-78
2023/06/03 00:56:44;;;;;;;1.57;0.70;;;;;;;;;;5113678;28;20512;-79
2023/06/03 00:59:14;;;;;;;1.10;0.50;;;;;;;;;;5113351;28;20411;-79
2023/06/03 01:01:42;;;;;;;0.83;0.30;;;;;;;;;;5113138;28;20480;-80
2023/06/03 01:04:08;;;;;;;2.73;0.70;;;;;;;;;;5113351;28;20416;-79
2023/06/03 01:06:45;;;;;;;1.27;0.67;;;;;;;;;;5113496;28;20441;-79
2023/06/03 01:09:30;;;;;;;1.33;0.40;;;;;;;;;;5113461;28;20438;-80
2023/06/03 01:12:22;;;;;;;2.10;0.33;;;;;;;;;;5113283;28;20496;-79
2023/06/03 01:14:55;;;;;;;2.53;0.90;;;;;;;;;;5108888;28;20489;-81
2023/06/03 01:17:24;;;;;;;0.77;0.33;;;;;;;;;;5110427;28;20417;-78
2023/06/03 01:19:52;;;;;;;1.57;0.87;;;;;;;;;;5107178;28;20412;-80
2023/06/03 01:22:20;;;;;;;2.10;0.60;;;;;;;;;;5092539;28;21013;-79
2023/06/03 01:24:48;;;;;;;1.43;0.50;;;;;;;;;;5092590;28;20410;-78
2023/06/03 01:27:14;;;;;;;2.77;0.50;;;;;;;;;;5092438;28;20495;-78
2023/06/03 01:29:41;;;;;;;1.07;0.70;;;;;;;;;;5100817;28;20832;-78
2023/06/03 01:32:10;;;;;;;2.60;0.60;;;;;;;;;;5112715;28;20405;-79
2023/06/03 01:34:37;;;;;;;1.63;0.33;;;;;;;;;;5112590;28;20441;-79
2023/06/03 01:37:03;;;;;;;1.30;0.40;;;;;;;;;;5112657;28;20755;-79
2023/06/03 01:39:29;;;;;;;2.63;0.50;;;;;;;;;;5112692;28;20417;-80
2023/06/03 01:41:55;;;;;;;2.77;0.30;;;;;;;;;;5112536;28;20482;-79
2023/06/03 01:44:21;;;;;;;1.20;0.50;;;;;;;;;;5112361;28;20403;-79
2023/06/03 01:46:47;;;;;;;1.27;0.50;;;;;;;;;;5112377;28;20410;-80
2023/06/03 01:49:14;;;;;;;1.87;0.83;;;;;;;;;;5112578;28;20407;-80
2023/06/03 01:51:40;;;;;;;1.80;0.30;;;;;;;;;;5112648;28;20449;-80
2023/06/03 01:54:06;;;;;;;1.47;0.30;;;;;;;;;;5112653;28;20438;-80
2023/06/03 01:56:32;;;;;;;1.07;0.40;;;;;;;;;;5111230;28;20528;-81
2023/06/03 01:58:58;;;;;;;1.77;0.63;;;;;;;;;;5112388;28;20418;-80
2023/06/03 02:01:24;;;;;;;3.13;0.37;;;;;;;;;;5111725;28;20473;-79
2023/06/03 02:03:50;;;;;;;0.83;0.30;;;;;;;;;;5092900;28;20416;-80
2023/06/03 02:06:16;;;;;;;1.80;0.63;;;;;;;;;;5092415;28;20824;-80
2023/06/03 02:08:42;;;;;;;2.43;0.50;;;;;;;;;;5092527;28;20413;-80
2023/06/03 02:11:08;;;;;;;0.80;0.33;;;;;;;;;;5093387;28;20444;-79
2023/06/03 02:13:34;;;;;;;1.70;0.70;;;;;;;;;;5096024;28;20492;-79
2023/06/03 02:16:00;;;;;;;1.60;0.80;;;;;;;;;;5095795;28;20791;-80
2023/06/03 02:18:26;;;;;;;0.83;0.30;;;;;;;;;;5096095;28;20404;-80
2023/06/03 02:20:52;;;;;;;3.83;0.40;;;;;;;;;;5095878;28;20557;-79
2023/06/03 02:23:18;;;;;;;1.87;0.90;;;;;;;;;;5095931;28;20439;-80
2023/06/03 02:25:44;;;;;;;1.07;0.67;;;;;;;;;;5095950;28;20479;-79
2023/06/03 02:28:12;;;;;;;1.50;0.50;;;;;;;;;;5095818;28;20428;-79
2023/06/03 02:30:38;;;;;;;3.17;0.60;;;;;;;;;;5095480;28;20404;-79
2023/06/03 02:33:04;;;;;;;1.23;0.40;;;;;;;;;;5111050;27;20419;-79
2023/06/03 02:35:30;;;;;;;1.73;0.43;;;;;;;;;;5136729;27;20404;-80
2023/06/03 02:37:56;;;;;;;0.60;0.30;;;;;;;;;;5136658;27;21005;-79
2023/06/03 02:40:22;;;;;;;1.10;0.43;;;;;;;;;;5136541;27;20405;-80
2023/06/03 02:42:48;;;;;;;1.23;0.70;;;;;;;;;;5118124;27;20522;-79
2023/06/03 02:45:14;;;;;;;1.10;0.27;;;;;;;;;;5136109;27;20500;-79
2023/06/03 02:47:40;;;;;;;1.67;0.67;;;;;;;;;;5136475;27;20904;-79
2023/06/03 02:50:06;;;;;;;1.27;0.90;;;;;;;;;;5117981;27;20508;-78
2023/06/03 02:52:33;;;;;;;2.40;0.33;;;;;;;;;;5136312;27;20545;-79
2023/06/03 02:55:00;;;;;;;2.10;0.30;;;;;;;;;;5136302;27;20812;-79
2023/06/03 02:57:26;;;;;;;1.10;0.70;;;;;;;;;;5136153;27;20415;-80
2023/06/03 02:59:52;;;;;;;2.30;0.60;;;;;;;;;;5117408;27;20501;-79
2023/06/03 03:02:21;;;;;;;1.93;0.47;;;;;;;;;;5136104;27;20574;-80
2023/06/03 03:04:47;;;;;;;1.60;0.70;;;;;;;;;;5135923;27;20448;-80
2023/06/03 03:07:13;;;;;;;2.73;0.70;;;;;;;;;;5136040;27;20914;-80
2023/06/03 03:09:40;;;;;;;1.80;0.63;;;;;;;;;;5135965;27;20405;-80
2023/06/03 03:12:07;;;;;;;1.13;0.70;;;;;;;;;;5136052;27;20444;-80
2023/06/03 03:14:33;;;;;;;3.07;0.60;;;;;;;;;;5135519;27;20439;-79
2023/06/03 03:16:59;;;;;;;1.20;0.60;;;;;;;;;;5135889;27;20407;-79
2023/06/03 03:19:28;;;;;;;5.67;0.70;;;;;;;;;;5135828;27;20400;-80
2023/06/03 03:21:54;;;;;;;1.73;0.80;;;;;;;;;;5117178;27;20481;-81
2023/06/03 03:24:22;;;;;;;1.50;0.53;;;;;;;;;;5135713;27;20406;-80
2023/06/03 03:26:48;;;;;;;1.70;0.47;;;;;;;;;;5135666;27;20413;-80
2023/06/03 03:29:14;;;;;;;1.70;0.63;;;;;;;;;;5135281;27;20772;-80
2023/06/03 03:31:40;;;;;;;1.17;0.80;;;;;;;;;;5135660;27;20729;-81
2023/06/03 03:34:07;;;;;;;2.57;1.00;;;;;;;;;;5135535;27;20506;-79
2023/06/03 03:36:36;;;;;;;1.77;0.33;;;;;;;;;;5135530;27;20450;-81
2023/06/03 03:39:03;;;;;;;2.50;0.73;;;;;;;;;;5135114;27;20429;-80
2023/06/03 03:41:30;;;;;;;2.03;0.77;;;;;;;;;;5135361;27;20207;-80
2023/06/03 03:43:57;;;;;;;3.00;0.50;;;;;;;;;;5134790;27;20409;-81
2023/06/03 03:46:22;;;;;;;2.30;0.70;;;;;;;;;;5135026;27;20199;-78
2023/06/03 03:48:48;;;;;;;1.30;0.73;;;;;;;;;;5135282;27;20419;-81
2023/06/03 03:51:15;;;;;;;2.47;0.40;;;;;;;;;;5135207;27;21071;-81
2023/06/03 03:53:45;;;;;;;2.07;0.67;;;;;;;;;;5135194;27;20479;-80
2023/06/03 03:56:12;;;;;;;1.77;0.83;;;;;;;;;;5135081;27;20408;-80
2023/06/03 03:58:40;;;;;;;1.17;0.50;;;;;;;;;;5135100;27;20760;-79
2023/06/03 04:01:12;;;;;;;1.50;0.40;;;;;;;;;;5134610;27;20556;-82
2023/06/03 04:03:45;;;;;;;1.57;0.47;;;;;;;;;;5134924;27;20403;-78
2023/06/03 04:06:12;;;;;;;2.17;0.40;;;;;;;;;;5134887;27;20465;-80
2023/06/03 04:08:39;;;;;;;1.50;0.67;;;;;;;;;;5134873;27;20449;-78
2023/06/03 04:11:06;;;;;;;1.30;0.40;;;;;;;;;;5134863;27;20800;-80
2023/06/03 04:13:40;;;;;;;1.27;0.40;;;;;;;;;;5134826;27;20779;-79
2023/06/03 04:16:07;;;;;;;2.73;0.47;;;;;;;;;;5134350;27;20401;-78
2023/06/03 04:18:37;;;;;;;2.60;0.57;;;;;;;;;;5116270;27;20925;-79
2023/06/03 04:21:03;;;;;;;2.80;1.20;;;;;;;;;;5134530;27;20452;-79
2023/06/03 04:23:29;;;;;;;1.00;0.53;;;;;;;;;;5134622;27;20422;-78
2023/06/03 04:25:55;;;;;;;1.47;0.53;;;;;;;;;;5134577;27;20406;-80
2023/06/03 04:28:21;;;;;;;1.73;0.40;;;;;;;;;;5134517;27;20925;-80
2023/06/03 04:30:47;;;;;;;2.40;0.70;;;;;;;;;;5134063;27;20411;-81
2023/06/03 04:33:13;;;;;;;1.10;0.30;;;;;;;;;;5133909;27;20407;-79
2023/06/03 04:35:39;;;;;;;2.63;0.60;;;;;;;;;;5134404;27;20954;-80
2023/06/03 04:38:05;;;;;;;0.83;0.40;;;;;;;;;;5134359;27;20406;-79
2023/06/03 04:40:31;;;;;;;1.30;0.33;;;;;;;;;;5134201;27;20561;-80
2023/06/03 04:42:56;;;;;;;4.03;1.37;;;;;;;;;;5134333;27;20923;-79
2023/06/03 04:45:23;;;;;;;2.40;0.70;;;;;;;;;;5133768;27;20409;-80
2023/06/03 04:47:52;;;;;;;1.37;0.40;;;;;;;;;;5134274;27;20412;-79
2023/06/03 04:50:20;;;;;;;1.70;0.30;;;;;;;;;;5134176;27;20777;-80
2023/06/03 04:52:47;;;;;;;2.90;0.93;;;;;;;;;;5134151;27;20422;-80
2023/06/03 04:55:13;;;;;;;0.97;0.50;;;;;;;;;;5134072;27;20418;-81
2023/06/03 04:57:38;;;;;;;1.90;0.70;;;;;;;;;;5133979;27;20502;-80
2023/06/03 05:00:09;;;;;;;2.23;0.40;;;;;;;;;;5133641;27;20412;-78
2023/06/03 05:02:35;;;;;;;1.67;0.33;;;;;;;;;;5133910;27;20467;-78
2023/06/03 05:05:01;;;;;;;0.93;0.20;;;;;;;;;;5133854;27;20854;-82
2023/06/03 05:07:27;;;;;;;1.20;0.30;;;;;;;;;;5133994;28;20172;-80
2023/06/03 05:09:53;;;;;;;1.70;0.30;;;;;;;;;;5115508;28;20404;-79
2023/06/03 05:12:19;;;;;;;2.03;0.30;;;;;;;;;;5133854;28;20906;-79
2023/06/03 05:14:46;;;;;;;1.13;0.30;;;;;;;;;;5133580;28;20413;-79
2023/06/03 05:17:12;;;;;;;1.47;0.50;;;;;;;;;;5133909;28;20408;-79
2023/06/03 05:19:38;;;;;;;0.90;0.30;;;;;;;;;;5133820;28;20416;-79
2023/06/03 05:22:04;;;;;;;0.80;0.30;;;;;;;;;;5133815;28;20790;-79
2023/06/03 05:24:30;;;;;;;0.90;0.20;;;;;;;;;;5133791;28;20419;-79
2023/06/03 05:26:56;;;;;;;1.57;0.57;;;;;;;;;;5133880;28;20889;-79
2023/06/03 05:29:22;;;;;;;0.87;0.20;;;;;;;;;;5133412;28;20411;-80
2023/06/03 05:31:48;;;;;;;0.60;0.20;;;;;;;;;;5133647;28;20195;-79
2023/06/03 05:34:14;;;;;;;1.90;0.40;;;;;;;;;;5133713;28;20403;-80
2023/06/03 05:36:40;;;;;;;2.57;0.60;;;;;;;;;;5133719;28;20516;-79
2023/06/03 05:39:06;;;;;;;0.97;0.33;;;;;;;;;;5133658;28;20429;-80
2023/06/03 05:41:33;;;;;;;2.63;0.40;;;;;;;;;;5133630;28;21018;-79
2023/06/03 05:43:59;;;;;;;5.20;0.30;;;;;;;;;;5133263;28;20425;-79
2023/06/03 05:46:25;;;;;;;0.60;0.27;;;;;;;;;;5135858;27;20827;-79
2023/06/03 05:48:51;;;;;;;0.63;0.20;;;;;;;;;;5137611;27;20437;-79
2023/06/03 05:51:17;;;;;;;1.83;0.20;;;;;;;;;;5137564;27;20171;-79
2023/06/03 05:53:44;;;;;;;1.20;0.27;;;;;;;;;;5137423;27;20417;-79
2023/06/03 05:56:10;;;;;;;1.43;0.50;;;;;;;;;;5137394;27;20914;-79
2023/06/03 05:58:38;;;;;;;0.83;0.20;;;;;;;;;;5137398;27;20494;-79
2023/06/03 06:01:03;;;;;;;2.63;0.30;;;;;;;;;;5137188;27;20459;-79
2023/06/03 06:03:29;;;;;;;2.30;1.23;;;;;;;;;;5137358;27;20403;-79
2023/06/03 06:05:56;;;;;;;1.63;0.30;;;;;;;;;;5137119;27;20221;-79
2023/06/03 06:08:22;;;;;;;1.80;0.20;;;;;;;;;;5137184;27;20400;-79
2023/06/03 06:10:48;;;;;;;0.77;0.20;;;;;;;;;;5137113;27;20408;-79
2023/06/03 06:13:13;;;;;;;0.70;0.20;;;;;;;;;;5137155;27;20415;-79
2023/06/03 06:15:55;;;;;;;0.73;0.20;;;;;;;;;;5136739;27;20434;-79
2023/06/03 06:18:22;;;;;;;4.50;0.40;;;;;;;;;;5137126;27;20227;-79
2023/06/03 06:20:49;;;;;;;1.00;0.30;;;;;;;;;;5136954;27;20532;-79
2023/06/03 06:23:15;;;;;;;2.50;0.87;;;;;;;;;;5136883;27;20440;-79
2023/06/03 06:25:47;;;;;;;1.10;0.30;;;;;;;;;;5136846;27;20396;-79
2023/06/03 06:28:13;;;;;;;1.27;0.50;;;;;;;;;;5136846;27;20502;-79
2023/06/03 06:30:39;;;;;;;1.87;0.50;;;;;;;;;;5136320;27;20412;-79
2023/06/03 06:33:05;;;;;;;0.73;0.23;;;;;;;;;;5136811;27;20764;-79
2023/06/03 06:35:31;;;;;;;0.60;0.23;;;;;;;;;;5136657;27;20487;-79
2023/06/03 06:37:57;;;;;;;2.10;0.30;;;;;;;;;;5136580;27;20491;-79
2023/06/03 06:40:27;;;;;;;1.73;0.50;;;;;;;;;;5136522;27;20405;-79
2023/06/03 06:42:53;;;;;;;1.03;0.30;;;;;;;;;;5136561;27;20418;-80
2023/06/03 06:45:23;;;;;;;2.20;0.43;;;;;;;;;;5136089;27;20409;-79
2023/06/03 06:47:49;;;;;;;0.70;0.30;;;;;;;;;;5136445;27;20422;-78
2023/06/03 06:50:34;;;;;;;0.73;0.30;;;;;;;;;;5136431;27;20823;-78
2023/06/03 06:53:00;;;;;;;0.57;0.20;;;;;;;;;;5136406;27;20403;-77
2023/06/03 06:55:40;;;;;;;1.00;0.23;;;;;;;;;;5117808;27;20992;-77
2023/06/03 06:58:08;;;;;;;0.80;0.20;;;;;;;;;;5135821;27;20411;-77
2023/06/03 07:00:35;;;;;;;0.50;0.20;;;;;;;;;;5135848;27;20895;-80
2023/06/03 07:03:01;;;;;;;1.33;0.20;;;;;;;;;;5136199;27;20466;-79
2023/06/03 07:05:26;;;;;;;0.40;0.20;;;;;;;;;;5135913;27;20449;-80
2023/06/03 07:07:52;;;;;;;0.77;0.20;;;;;;;;;;5136035;27;20412;-80
2023/06/03 07:10:21;;;;;;;0.80;0.20;;;;;;;;;;5117540;27;20625;-82
2023/06/03 07:12:51;;;;;;;1.57;0.20;;;;;;;;;;5135765;27;20177;-78
2023/06/03 07:15:17;;;;;;;0.90;0.30;;;;;;;;;;5135193;27;20915;-78
2023/06/03 07:17:43;;;;;;;1.00;0.10;;;;;;;;;;5135615;27;20547;-78
2023/06/03 07:20:18;;;;;;;0.53;0.20;;;;;;;;;;5135822;27;20514;-78
2023/06/03 07:22:44;;;;;;;0.60;0.30;;;;;;;;;;5135834;27;20221;-78
2023/06/03 07:25:17;;;;;;;0.90;0.20;;;;;;;;;;5135743;27;20404;-78
2023/06/03 07:27:44;;;;;;;0.60;0.27;;;;;;;;;;5135778;27;20409;-78
2023/06/03 07:30:15;;;;;;;0.63;0.20;;;;;;;;;;5135174;27;20461;-78
2023/06/03 07:32:41;;;;;;;0.60;0.20;;;;;;;;;;5135611;27;20401;-78
2023/06/03 07:35:07;;;;;;;0.63;0.20;;;;;;;;;;5135719;27;20961;-78
2023/06/03 07:37:33;;;;;;;2.40;0.20;;;;;;;;;;5135484;27;20175;-79
2023/06/03 07:39:59;;;;;;;0.70;0.30;;;;;;;;;;5135432;27;20404;-79
2023/06/03 07:42:27;;;;;;;2.73;0.20;;;;;;;;;;5135233;27;20468;-78
2023/06/03 07:44:55;;;;;;;0.70;0.20;;;;;;;;;;5134990;27;20159;-78
2023/06/03 07:47:21;;;;;;;0.50;0.23;;;;;;;;;;5116931;27;20986;-79
2023/06/03 07:49:48;;;;;;;0.70;0.20;;;;;;;;;;5135292;27;20409;-79
2023/06/03 07:52:18;;;;;;;1.53;0.20;;;;;;;;;;5135186;27;20409;-79
2023/06/03 07:54:44;;;;;;;0.50;0.20;;;;;;;;;;5135143;27;20411;-78
2023/06/03 07:57:11;;;;;;;0.40;0.20;;;;;;;;;;5135096;27;20412;-78
2023/06/03 07:59:37;;;;;;;1.23;0.20;;;;;;;;;;5134673;27;20436;-78
2023/06/03 08:02:03;;;;;;;1.03;0.20;;;;;;;;;;5134902;27;20514;-78
2023/06/03 08:04:35;;;;;;;1.07;0.20;;;;;;;;;;5134857;27;20750;-78
2023/06/03 08:07:02;;;;;;;0.90;0.30;;;;;;;;;;5134854;27;20420;-77
2023/06/03 08:09:28;;;;;;;0.70;0.23;;;;;;;;;;5115687;27;20834;-78
2023/06/03 08:11:57;;;;;;;0.73;0.20;;;;;;;;;;5134721;27;20420;-78
2023/06/03 08:14:24;;;;;;;3.17;0.20;;;;;;;;;;5134393;27;20181;-78
2023/06/03 08:16:51;;;;;;;0.40;0.20;;;;;;;;;;5134555;27;20873;-78
2023/06/03 08:19:17;;;;;;;0.60;0.20;;;;;;;;;;5129270;27;20412;-78
2023/06/03 08:21:46;;;;;;;0.70;0.20;;;;;;;;;;5113949;28;20509;-78
2023/06/03 08:24:13;;;;;;;0.80;0.40;;;;;;;;;;5095746;28;20508;-78
2023/06/03 08:26:39;;;;;;;0.80;0.30;;;;;;;;;;5113950;28;20771;-78
2023/06/03 08:29:05;;;;;;;0.50;0.20;;;;;;;;;;5113538;28;20402;-79
2023/06/03 08:31:34;;;;;;;0.50;0.20;;;;;;;;;;5113780;28;20509;-78
2023/06/03 08:34:01;;;;;;;0.70;0.20;;;;;;;;;;5113889;28;20172;-78
2023/06/03 08:36:26;;;;;;;1.27;0.20;;;;;;;;;;5113791;28;20401;-78
2023/06/03 08:38:52;;;;;;;0.63;0.23;;;;;;;;;;5113859;28;20997;-78
2023/06/03 08:41:18;;;;;;;0.50;0.20;;;;;;;;;;5113907;28;20557;-78
2023/06/03 08:43:50;;;;;;;0.57;0.20;;;;;;;;;;5113335;28;20566;-78
2023/06/03 08:46:22;;;;;;;0.40;0.27;;;;;;;;;;5113917;28;20171;-78
2023/06/03 08:48:56;;;;;;;1.07;0.20;;;;;;;;;;5095396;28;20893;-78
2023/06/03 08:51:23;;;;;;;0.77;0.20;;;;;;;;;;5095393;28;20444;-78
2023/06/03 08:53:52;;;;;;;0.50;0.20;;;;;;;;;;5095653;28;20761;-78
2023/06/03 08:56:19;;;;;;;0.40;0.20;;;;;;;;;;5113538;28;20451;-79
2023/06/03 08:58:57;;;;;;;0.57;0.20;;;;;;;;;;5113216;28;20420;-78
2023/06/03 09:01:28;;;;;;;0.47;0.30;;;;;;;;;;5095306;28;20988;-78
2023/06/03 09:03:54;;;;;;;1.13;0.20;;;;;;;;;;5095193;28;20796;-78
2023/06/03 09:06:20;;;;;;;0.60;0.20;;;;;;;;;;5113338;28;20546;-78
2023/06/03 09:08:52;;;;;;;1.93;0.20;;;;;;;;;;5113448;28;20505;-78
2023/06/03 09:11:19;;;;;;;0.73;0.20;;;;;;;;;;5113509;28;20490;-79
2023/06/03 09:13:46;;;;;;;1.00;0.40;;;;;;;;;;5113057;28;20410;-79
2023/06/03 09:16:13;;;;;;;0.60;0.20;;;;;;;;;;5113361;28;20405;-79
2023/06/03 09:18:39;;;;;;;0.83;0.20;;;;;;;;;;5095136;28;20421;-78
2023/06/03 09:21:09;;;;;;;0.40;0.20;;;;;;;;;;5116515;28;20457;-78
2023/06/03 09:23:36;;;;;;;0.50;0.20;;;;;;;;;;5117520;28;20897;-78
2023/06/03 09:26:02;;;;;;;0.60;0.20;;;;;;;;;;5117525;28;20409;-78
2023/06/03 09:28:29;;;;;;;0.60;0.20;;;;;;;;;;5117073;28;20405;-79
2023/06/03 09:30:55;;;;;;;0.77;0.20;;;;;;;;;;5117403;28;21020;-79
2023/06/03 09:33:22;;;;;;;1.20;0.30;;;;;;;;;;5117269;28;20488;-79
2023/06/03 09:36:06;;;;;;;1.33;0.30;;;;;;;;;;5117235;28;20175;-78
2023/06/03 09:38:47;;;;;;;0.73;0.30;;;;;;;;;;5117259;28;20897;-79
2023/06/03 09:41:17;;;;;;;2.30;0.20;;;;;;;;;;5098791;28;20453;-78
2023/06/03 09:43:52;;;;;;;0.50;0.20;;;;;;;;;;5111757;28;20468;-79
2023/06/03 09:46:19;;;;;;;0.80;0.20;;;;;;;;;;5109439;28;20499;-78
2023/06/03 09:48:45;;;;;;;2.97;0.20;;;;;;;;;;5116696;28;20781;-78
2023/06/03 09:51:11;;;;;;;1.13;0.20;;;;;;;;;;5115384;28;20425;-78
2023/06/03 09:53:37;;;;;;;0.60;0.30;;;;;;;;;;5116642;28;20429;-78
2023/06/03 09:56:20;;;;;;;3.13;0.30;;;;;;;;;;5116674;28;20167;-78
2023/06/03 09:58:46;;;;;;;0.80;0.30;;;;;;;;;;5128338;27;20596;-79
2023/06/03 10:01:12;;;;;;;1.13;0.20;;;;;;;;;;5136706;27;20459;-79
2023/06/03 10:03:41;;;;;;;1.07;0.20;;;;;;;;;;5136900;27;20245;-80
2023/06/03 10:06:17;;;;;;;0.90;0.33;;;;;;;;;;5136741;27;20578;-79
2023/06/03 10:08:43;;;;;;;0.77;0.20;;;;;;;;;;5133813;27;20428;-79
2023/06/03 10:11:09;;;;;;;0.60;0.20;;;;;;;;;;5116157;28;20421;-79
2023/06/03 10:13:35;;;;;;;0.53;0.20;;;;;;;;;;5115948;28;20175;-79
2023/06/03 10:16:02;;;;;;;0.50;0.20;;;;;;;;;;5116161;28;20175;-80
2023/06/03 10:18:36;;;;;;;0.70;0.23;;;;;;;;;;5116121;28;20168;-80
2023/06/03 10:21:05;;;;;;;0.50;0.20;;;;;;;;;;5115955;28;20513;-80
2023/06/03 10:23:32;;;;;;;2.20;0.20;;;;;;;;;;5097824;28;20422;-81
2023/06/03 10:26:01;;;;;;;0.50;0.20;;;;;;;;;;5115886;28;20454;-80
2023/06/03 10:28:27;;;;;;;3.40;1.17;;;;;;;;;;5104429;27;20442;-78
2023/06/03 10:30:56;;;;;;;0.70;0.20;;;;;;;;;;5094783;28;20517;-84
2023/06/03 10:33:22;;;;;;;0.40;0.20;;;;;;;;;;5093011;28;20413;-86
2023/06/03 10:35:49;;;;;;;0.50;0.20;;;;;;;;;;5093364;28;20414;-86
2023/06/03 10:38:15;;;;;;;0.60;0.20;;;;;;;;;;5095928;28;20983;-79
2023/06/03 10:40:42;;;;;;;0.83;0.30;;;;;;;;;;5095797;28;20419;-86
2023/06/03 10:43:10;;;;;;;1.33;0.37;;;;;;;;;;5095828;28;20582;-81
2023/06/03 10:45:36;;;;;;;0.90;0.50;;;;;;;;;;5096419;28;20883;-93
2023/06/03 10:48:09;;;;;;;1.80;0.20;;;;;;;;;;5117554;28;20438;-94
2023/06/03 10:50:43;;;;;;;0.63;0.20;;;;;;;;;;5114232;28;20168;-83
2023/06/03 10:53:27;;;;;;;0.60;0.20;;;;;;;;;;5116176;28;20497;-83
2023/06/03 10:56:06;;;;;;;0.40;0.20;;;;;;;;;;5113317;28;20437;-81
2023/06/03 10:58:32;;;;;;;0.93;0.43;;;;;;;;;;5111383;28;20450;-80
2023/06/03 11:00:59;;;;;;;1.27;0.20;;;;;;;;;;5114383;28;20483;-81
2023/06/03 11:03:26;;;;;;;0.73;0.20;;;;;;;;;;5115093;28;20433;-82
2023/06/03 11:05:52;;;;;;;0.90;0.20;;;;;;;;;;5114559;28;20460;-81
2023/06/03 11:08:37;;;;;;;1.37;0.30;;;;;;;;;;5115263;28;20417;-81
2023/06/03 11:11:03;;;;;;;0.60;0.20;;;;;;;;;;5115565;28;20484;-86
2023/06/03 11:13:40;;;;;;;0.70;0.20;;;;;;;;;;5096529;28;20449;-89
2023/06/03 11:16:06;;;;;;;0.60;0.20;;;;;;;;;;5115305;28;20259;-85
2023/06/03 11:18:32;;;;;;;2.00;0.40;;;;;;;;;;5089468;28;20861;-80
2023/06/03 11:20:58;;;;;;;0.70;0.20;;;;;;;;;;5114364;28;20206;-80
2023/06/03 11:23:40;;;;;;;0.63;0.20;;;;;;;;;;5119654;28;20421;-86
2023/06/03 11:26:25;;;;;;;0.97;0.20;;;;;;;;;;5114704;28;20494;-80
2023/06/03 11:28:50;;;;;;;1.27;0.20;;;;;;;;;;5115825;28;20397;-84
2023/06/03 11:31:20;;;;;;;0.47;0.20;;;;;;;;;;5115364;28;20425;-79
2023/06/03 11:34:06;;;;;;;0.70;0.20;;;;;;;;;;5136633;22;20223;-93
2023/06/03 11:36:51;;;;;;;0.53;0.20;;;;;;;;;;5096050;28;20441;-80
2023/06/03 11:39:18;;;;;;;0.50;0.20;;;;;;;;;;5114355;28;20901;-87
2023/06/03 11:42:08;;;;;;;0.40;0.27;;;;;;;;;;5114366;28;20417;-80
2023/06/03 11:44:34;;;;;;;0.70;0.20;;;;;;;;;;5113460;28;20493;-78
2023/06/03 11:47:00;;;;;;;0.57;0.20;;;;;;;;;;5114649;28;20415;-79
2023/06/03 11:49:26;;;;;;;0.43;0.20;;;;;;;;;;5114668;28;20458;-80
2023/06/03 11:51:56;;;;;;;0.83;0.40;;;;;;;;;;5113185;28;20302;-78
2023/06/03 11:54:22;;;;;;;1.80;0.20;;;;;;;;;;5114549;28;20414;-79
2023/06/03 11:56:50;;;;;;;0.50;0.20;;;;;;;;;;5114656;28;20436;-78
2023/06/03 11:59:18;;;;;;;0.60;0.20;;;;;;;;;;5114207;28;20402;-79
2023/06/03 12:01:56;;;;;;;1.10;0.20;;;;;;;;;;5114476;28;20739;-78
2023/06/03 12:04:22;;;;;;;0.60;0.20;;;;;;;;;;5114385;28;20413;-80
2023/06/03 12:06:48;;;;;;;0.50;0.20;;;;;;;;;;5114425;28;20417;-79
2023/06/03 12:09:18;;;;;;;0.60;0.20;;;;;;;;;;5114401;28;20761;-79
2023/06/03 12:11:44;;;;;;;0.83;0.30;;;;;;;;;;5114209;28;20631;-80
2023/06/03 12:14:30;;;;;;;0.50;0.20;;;;;;;;;;5112640;28;20513;-80
2023/06/03 12:16:57;;;;;;;1.33;0.23;;;;;;;;;;5113953;28;20177;-78
2023/06/03 12:19:23;;;;;;;1.10;0.20;;;;;;;;;;5114234;28;20414;-78
2023/06/03 12:21:56;;;;;;;0.43;0.20;;;;;;;;;;5114198;28;20808;-79
2023/06/03 12:24:26;;;;;;;0.50;0.20;;;;;;;;;;5114094;28;20410;-78
2023/06/03 12:26:54;;;;;;;0.97;0.20;;;;;;;;;;5114036;28;20421;-79
2023/06/03 12:29:20;;;;;;;0.80;0.20;;;;;;;;;;5113683;28;20413;-77
2023/06/03 12:31:59;;;;;;;0.50;0.20;;;;;;;;;;5113872;28;20473;-78
2023/06/03 12:34:29;;;;;;;0.70;0.20;;;;;;;;;;5113657;28;20449;-79
2023/06/03 12:36:55;;;;;;;0.80;0.30;;;;;;;;;;5113848;28;20421;-79
2023/06/03 12:39:21;;;;;;;1.37;0.20;;;;;;;;;;5113812;28;20761;-78
2023/06/03 12:41:52;;;;;;;0.80;0.20;;;;;;;;;;5113733;28;20170;-78
2023/06/03 12:44:17;;;;;;;1.57;0.20;;;;;;;;;;5113465;28;20172;-79
2023/06/03 12:46:44;;;;;;;2.20;0.20;;;;;;;;;;5113640;28;20412;-79
2023/06/03 12:49:19;;;;;;;0.57;0.20;;;;;;;;;;5113697;28;20171;-79
2023/06/03 12:51:45;;;;;;;3.90;0.30;;;;;;;;;;5113546;28;20464;-80
2023/06/03 12:54:11;;;;;;;0.40;0.20;;;;;;;;;;5113199;28;20412;-79
2023/06/03 12:56:37;;;;;;;0.60;0.20;;;;;;;;;;5113545;28;20171;-80
2023/06/03 12:59:03;;;;;;;0.50;0.20;;;;;;;;;;5113183;28;20199;-80
2023/06/03 13:01:29;;;;;;;0.60;0.20;;;;;;;;;;5113586;28;20528;-80
2023/06/03 13:03:55;;;;;;;0.60;0.20;;;;;;;;;;5113439;28;20405;-80
2023/06/03 13:06:25;;;;;;;2.60;0.27;;;;;;;;;;5113525;28;20462;-78
2023/06/03 13:08:51;;;;;;;1.27;0.20;;;;;;;;;;5113467;28;20470;-79
2023/06/03 13:11:21;;;;;;;0.77;0.20;;;;;;;;;;5113318;28;20475;-79
2023/06/03 13:13:47;;;;;;;0.57;0.30;;;;;;;;;;5112981;28;20466;-79
2023/06/03 13:16:13;;;;;;;0.87;0.57;;;;;;;;;;5113239;28;20488;-79
2023/06/03 13:18:40;;;;;;;0.50;0.20;;;;;;;;;;5113373;28;20448;-79
2023/06/03 13:21:06;;;;;;;3.23;0.20;;;;;;;;;;5113355;28;20229;-80
2023/06/03 13:23:32;;;;;;;0.60;0.20;;;;;;;;;;5113157;28;20405;-79
2023/06/03 13:25:58;;;;;;;0.57;0.27;;;;;;;;;;5113208;28;20175;-79
2023/06/03 13:28:25;;;;;;;1.47;0.40;;;;;;;;;;5112815;28;20167;-80
2023/06/03 13:30:51;;;;;;;3.90;0.20;;;;;;;;;;5113193;28;20406;-79
2023/06/03 13:33:17;;;;;;;0.50;0.20;;;;;;;;;;5112988;28;20745;-79
2023/06/03 13:35:43;;;;;;;0.80;0.23;;;;;;;;;;5113260;28;20198;-79
2023/06/03 13:38:09;;;;;;;1.37;0.20;;;;;;;;;;5113133;28;20445;-79
2023/06/03 13:40:35;;;;;;;1.77;0.30;;;;;;;;;;5113076;28;20448;-79
2023/06/03 13:43:04;;;;;;;0.50;0.20;;;;;;;;;;5112807;28;20171;-79
2023/06/03 13:45:30;;;;;;;0.87;0.30;;;;;;;;;;5113117;28;20207;-79
2023/06/03 13:47:56;;;;;;;0.40;0.20;;;;;;;;;;5113106;28;20765;-79
2023/06/03 13:50:22;;;;;;;0.40;0.40;;;;;;;;;;5111692;28;20554;-79
2023/06/03 13:52:48;;;;;;;0.87;0.20;;;;;;;;;;5112878;28;20956;-78
2023/06/03 13:55:14;;;;;;;1.00;0.30;;;;;;;;;;5112965;28;20405;-79
2023/06/03 13:57:40;;;;;;;0.90;0.40;;;;;;;;;;5112659;28;20421;-78
2023/06/03 14:00:07;;;;;;;0.63;0.20;;;;;;;;;;5112990;28;20489;-78
2023/06/03 14:02:32;;;;;;;1.70;1.43;;;;;;;;;;5112988;28;20180;-79
2023/06/03 14:04:58;;;;;;;1.80;1.70;;;;;;;;;;5112831;28;20522;-78
2023/06/03 14:07:25;;;;;;;1.17;1.07;;;;;;;;;;5114854;28;20905;-78
2023/06/03 14:09:51;;;;;;;1.33;0.20;;;;;;;;;;5116768;28;20180;-79
2023/06/03 14:12:19;;;;;;;0.50;0.30;;;;;;;;;;5116258;28;20473;-79
2023/06/03 14:14:45;;;;;;;1.10;0.30;;;;;;;;;;5116589;28;20409;-78
2023/06/03 14:17:13;;;;;;;0.80;0.30;;;;;;;;;;5114525;28;20909;-80
2023/06/03 14:19:39;;;;;;;1.00;0.20;;;;;;;;;;5116523;28;20197;-79
2023/06/03 14:22:05;;;;;;;0.80;0.20;;;;;;;;;;5116501;28;20414;-79
2023/06/03 14:24:32;;;;;;;0.87;0.20;;;;;;;;;;5115056;28;20183;-79
2023/06/03 14:27:00;;;;;;;0.80;0.20;;;;;;;;;;5115092;28;20445;-79
2023/06/03 14:29:26;;;;;;;0.50;0.20;;;;;;;;;;5115980;28;20443;-82
2023/06/03 14:31:52;;;;;;;1.23;0.40;;;;;;;;;;5116076;28;20567;-81
2023/06/03 14:34:18;;;;;;;0.50;0.20;;;;;;;;;;5116023;28;20543;-79
2023/06/03 14:36:45;;;;;;;0.83;0.30;;;;;;;;;;5116231;28;20885;-79
2023/06/03 14:39:11;;;;;;;0.40;0.20;;;;;;;;;;5114827;28;20464;-83
2023/06/03 14:41:37;;;;;;;1.27;0.20;;;;;;;;;;5114919;28;20417;-80
2023/06/03 14:44:03;;;;;;;1.77;0.30;;;;;;;;;;5115546;28;20411;-83
2023/06/03 14:46:29;;;;;;;1.40;0.33;;;;;;;;;;5114569;28;20419;-77